createdAt,value
2018-08-11T00:02:21.878Z,21.60
2018-08-11T00:04:50.776Z,21.70
2018-08-11T00:07:19.673Z,21.80
2018-08-11T00:09:48.558Z,21.80
2018-08-11T00:12:17.488Z,21.70
2018-08-11T00:14:46.387Z,21.60
2018-08-11T00:17:15.267Z,21.70
2018-08-11T00:19:44.374Z,21.90
2018-08-11T00:22:13.277Z,22.00
2018-08-11T00:24:42.364Z,22.50
2018-08-11T00:27:11.222Z,22.90
2018-08-11T00:29:40.405Z,23.10
2018-08-11T00:32:09.282Z,23.00
2018-08-11T00:34:38.478Z,22.90
2018-08-11T00:37:07.350Z,23.00
2018-08-11T00:39:36.226Z,22.80
2018-08-11T00:42:05.379Z,22.60
2018-08-11T00:44:34.291Z,22.60
2018-08-11T00:47:03.388Z,22.90
2018-08-11T00:49:32.628Z,22.70
2018-08-11T00:52:01.476Z,22.30
2018-08-11T00:54:30.354Z,22.00
2018-08-11T00:56:59.238Z,21.90
2018-08-11T00:59:28.115Z,22.00
2018-08-11T01:01:57.065Z,22.10
2018-08-11T01:04:25.944Z,22.30
2018-08-11T01:06:54.845Z,22.40
2018-08-11T01:09:23.761Z,22.60
2018-08-11T01:11:52.639Z,22.60
2018-08-11T01:14:21.537Z,22.30
2018-08-11T01:16:50.717Z,22.30
2018-08-11T01:19:19.569Z,22.40
2018-08-11T01:21:48.507Z,22.40
2018-08-11T01:24:17.646Z,22.50
2018-08-11T01:26:46.533Z,22.70
2018-08-11T01:29:15.394Z,22.80
2018-08-11T01:31:44.304Z,23.00
2018-08-11T01:34:13.289Z,23.00
2018-08-11T01:36:42.152Z,23.00
2018-08-11T01:39:11.978Z,22.90
2018-08-11T01:41:40.871Z,22.60
2018-08-11T01:44:09.808Z,22.60
2018-08-11T01:46:38.719Z,22.30
2018-08-11T01:49:07.607Z,22.50
2018-08-11T01:51:36.467Z,22.50
2018-08-11T01:54:05.368Z,22.20
2018-08-11T01:56:34.278Z,22.20
2018-08-11T01:59:03.161Z,22.20
2018-08-11T02:01:32.028Z,22.30
2018-08-11T02:04:00.954Z,22.70
2018-08-11T02:06:29.838Z,22.60
2018-08-11T02:08:58.972Z,22.60
2018-08-11T02:11:27.879Z,22.40
2018-08-11T02:13:56.776Z,22.00
2018-08-11T02:16:25.642Z,21.60
2018-08-11T02:18:54.879Z,21.40
2018-08-11T02:21:23.779Z,21.30
2018-08-11T02:23:52.998Z,21.80
2018-08-11T02:26:21.941Z,22.30
2018-08-11T02:28:50.906Z,22.40
2018-08-11T02:31:20.216Z,22.20
2018-08-11T02:33:49.346Z,22.40
2018-08-11T02:36:18.248Z,22.50
2018-08-11T02:38:47.128Z,22.30
2018-08-11T02:41:16.311Z,22.40
2018-08-11T02:43:45.226Z,22.50
2018-08-11T02:46:14.504Z,22.40
2018-08-11T02:48:43.394Z,22.20
2018-08-11T02:51:12.573Z,21.90
2018-08-11T02:53:41.431Z,22.30
2018-08-11T02:56:10.333Z,22.60
2018-08-11T02:58:39.225Z,22.60
2018-08-11T03:01:08.442Z,22.50
2018-08-11T03:03:37.605Z,22.10
2018-08-11T03:06:06.526Z,22.20
2018-08-11T03:08:35.746Z,22.40
2018-08-11T03:11:04.717Z,22.40
2018-08-11T03:13:33.847Z,22.30
2018-08-11T03:16:02.775Z,22.20
2018-08-11T03:18:31.673Z,22.40
2018-08-11T03:21:00.609Z,22.20
2018-08-11T03:23:29.474Z,22.40
2018-08-11T03:25:58.678Z,22.50
2018-08-11T03:28:27.569Z,22.20
2018-08-11T03:30:56.461Z,22.30
2018-08-11T03:33:25.359Z,22.20
2018-08-11T03:35:54.550Z,22.50
2018-08-11T03:38:23.422Z,22.50
2018-08-11T03:40:52.315Z,22.40
2018-08-11T03:43:21.558Z,22.30
2018-08-11T03:45:50.437Z,22.30
2018-08-11T03:48:19.922Z,22.50
2018-08-11T03:50:48.775Z,22.60
2018-08-11T03:53:18.003Z,22.80
2018-08-11T03:55:46.894Z,22.70
2018-08-11T03:58:16.095Z,22.80
2018-08-11T04:00:44.968Z,22.90
2018-08-11T04:03:14.150Z,23.10
2018-08-11T04:05:43.054Z,22.80
2018-08-11T04:08:11.943Z,22.70
2018-08-11T04:10:40.837Z,22.70
2018-08-11T04:13:09.717Z,22.90
2018-08-11T04:15:38.591Z,22.80
2018-08-11T04:18:07.496Z,22.80
2018-08-11T04:20:36.391Z,22.80
2018-08-11T04:23:05.535Z,22.50
2018-08-11T04:25:34.406Z,22.10
2018-08-11T04:28:03.276Z,22.10
2018-08-11T04:30:32.461Z,22.30
2018-08-11T04:33:01.692Z,22.20
2018-08-11T04:35:30.613Z,22.50
2018-08-11T04:37:59.475Z,22.80
2018-08-11T04:40:28.397Z,22.80
2018-08-11T04:42:57.256Z,22.40
2018-08-11T04:45:26.203Z,22.50
2018-08-11T04:47:55.378Z,22.20
2018-08-11T04:50:24.778Z,22.10
2018-08-11T04:52:53.936Z,21.90
2018-08-11T04:55:22.831Z,21.70
2018-08-11T04:57:51.695Z,22.00
2018-08-11T05:00:20.591Z,22.00
2018-08-11T05:02:49.810Z,22.00
2018-08-11T05:05:19.083Z,22.00
2018-08-11T05:07:48.379Z,22.10
2018-08-11T05:10:17.270Z,21.90
2018-08-11T05:12:46.171Z,22.10
2018-08-11T05:15:15.043Z,22.10
2018-08-11T05:17:43.942Z,22.30
2018-08-11T05:20:12.849Z,22.40
2018-08-11T05:22:41.730Z,22.50
2018-08-11T05:25:10.645Z,22.70
2018-08-11T05:27:39.545Z,22.60
2018-08-11T05:30:09.280Z,22.50
2018-08-11T05:32:38.435Z,22.40
2018-08-11T05:35:07.352Z,22.20
2018-08-11T05:37:36.260Z,22.60
2018-08-11T05:40:05.516Z,22.10
2018-08-11T05:42:34.372Z,21.70
2018-08-11T05:45:03.258Z,21.40
2018-08-11T05:47:32.180Z,21.00
2018-08-11T05:52:36.252Z,20.40
2018-08-11T05:55:05.276Z,20.60
2018-08-11T05:57:34.182Z,20.50
2018-08-11T06:00:03.127Z,20.30
2018-08-11T06:02:32.336Z,20.60
2018-08-11T06:05:01.587Z,20.40
2018-08-11T06:07:30.798Z,20.30
2018-08-11T06:09:59.678Z,20.10
2018-08-11T06:12:28.590Z,19.70
2018-08-11T06:14:57.548Z,19.40
2018-08-11T06:17:26.440Z,19.20
2018-08-11T06:19:55.878Z,19.10
2018-08-11T06:22:24.812Z,19.60
2018-08-11T06:24:53.707Z,19.90
2018-08-11T06:27:22.610Z,20.30
2018-08-11T06:29:51.835Z,20.70
2018-08-11T06:32:20.731Z,21.00
2018-08-11T06:34:49.655Z,21.30
2018-08-11T06:37:18.539Z,21.30
2018-08-11T06:39:47.702Z,21.40
2018-08-11T06:42:17.249Z,21.40
2018-08-11T06:44:46.144Z,20.80
2018-08-11T06:47:15.585Z,21.00
2018-08-11T06:49:44.499Z,21.40
2018-08-11T06:52:13.453Z,21.80
2018-08-11T06:54:42.362Z,22.40
2018-08-11T06:57:11.456Z,23.00
2018-08-11T06:59:40.591Z,23.10
2018-08-11T07:02:09.496Z,22.10
2018-08-11T07:04:38.936Z,21.70
2018-08-11T07:07:07.845Z,21.40
2018-08-11T07:09:36.752Z,21.20
2018-08-11T07:12:05.932Z,21.00
2018-08-11T07:14:34.822Z,20.80
2018-08-11T07:17:04.568Z,20.80
2018-08-11T07:19:33.785Z,20.90
2018-08-11T07:22:02.674Z,20.90
2018-08-11T07:24:31.627Z,21.10
2018-08-11T07:27:00.867Z,21.50
2018-08-11T07:29:30.084Z,22.20
2018-08-11T07:31:58.981Z,22.70
2018-08-11T07:34:27.911Z,23.00
2018-08-11T07:36:56.851Z,23.20
2018-08-11T07:39:25.806Z,23.50
2018-08-11T07:41:54.731Z,23.70
2018-08-11T07:44:24.208Z,23.90
2018-08-11T07:46:53.099Z,24.20
2018-08-11T07:49:23.563Z,24.40
2018-08-11T07:51:52.469Z,24.20
2018-08-11T07:54:21.391Z,23.80
2018-08-11T07:56:50.585Z,23.30
2018-08-11T07:59:19.746Z,23.00
2018-08-11T08:01:48.871Z,22.50
2018-08-11T08:04:17.979Z,22.30
2018-08-11T08:06:46.882Z,22.10
2018-08-11T08:09:15.836Z,22.60
2018-08-11T08:11:44.975Z,23.60
2018-08-11T08:14:14.116Z,24.00
2018-08-11T08:16:43.070Z,24.60
2018-08-11T08:19:11.976Z,24.80
2018-08-11T08:21:41.048Z,24.80
2018-08-11T08:24:09.960Z,25.10
2018-08-11T08:26:38.989Z,25.10
2018-08-11T08:29:07.893Z,24.70
2018-08-11T08:31:37.041Z,24.80
2018-08-11T08:34:06.262Z,25.10
2018-08-11T08:36:35.205Z,24.90
2018-08-11T08:39:12.883Z,25.00
2018-08-11T08:41:42.201Z,25.40
2018-08-11T08:44:11.331Z,25.60
2018-08-11T08:46:40.347Z,25.70
2018-08-11T08:49:09.272Z,25.80
2018-08-11T08:51:38.214Z,25.80
2018-08-11T08:54:07.112Z,25.00
2018-08-11T08:56:36.048Z,24.30
2018-08-11T08:59:04.992Z,23.60
2018-08-11T09:01:34.921Z,23.20
2018-08-11T09:04:04.047Z,23.40
2018-08-11T09:06:32.941Z,23.50
2018-08-11T09:09:01.847Z,23.60
2018-08-11T09:11:30.801Z,23.70
2018-08-11T09:13:59.715Z,23.80
2018-08-11T09:16:28.675Z,23.90
2018-08-11T09:18:57.577Z,24.20
2018-08-11T09:21:26.560Z,24.70
2018-08-11T09:23:55.741Z,25.50
2018-08-11T09:26:24.658Z,26.20
2018-08-11T09:28:54.059Z,26.70
2018-08-11T09:31:22.987Z,26.90
2018-08-11T09:33:52.168Z,27.40
2018-08-11T09:36:21.216Z,27.70
2018-08-11T09:38:50.331Z,27.90
2018-08-11T09:41:19.211Z,27.90
2018-08-11T09:43:48.522Z,27.80
2018-08-11T09:46:17.465Z,27.70
2018-08-11T09:48:46.763Z,27.70
2018-08-11T09:51:15.959Z,27.80
2018-08-11T09:53:45.079Z,27.90
2018-08-11T09:56:14.458Z,27.80
2018-08-11T09:58:43.762Z,27.60
2018-08-11T10:01:18.061Z,27.20
2018-08-11T10:03:47.200Z,27.00
2018-08-11T10:06:16.143Z,27.20
2018-08-11T10:08:45.630Z,27.40
2018-08-11T10:11:14.795Z,27.20
2018-08-11T10:13:43.914Z,27.00
2018-08-11T10:16:12.814Z,26.80
2018-08-11T10:18:41.969Z,26.10
2018-08-11T10:21:10.906Z,24.90
2018-08-11T10:23:40.065Z,24.30
2018-08-11T10:26:08.949Z,24.00
2018-08-11T10:28:37.842Z,24.00
2018-08-11T10:31:07.392Z,24.00
2018-08-11T10:33:36.299Z,24.10
2018-08-11T10:36:05.158Z,24.40
2018-08-11T10:38:34.127Z,25.00
2018-08-11T10:41:03.246Z,25.50
2018-08-11T10:43:32.233Z,26.30
2018-08-11T10:46:01.154Z,26.50
2018-08-11T10:48:30.107Z,26.60
2018-08-11T10:50:59.022Z,25.90
2018-08-11T10:53:27.931Z,25.50
2018-08-11T10:55:57.342Z,25.70
2018-08-11T10:58:26.415Z,25.70
2018-08-11T11:00:55.395Z,26.50
2018-08-11T11:03:25.587Z,26.70
2018-08-11T11:05:54.644Z,26.60
2018-08-11T11:08:23.610Z,26.50
2018-08-11T11:10:53.066Z,26.70
2018-08-11T11:13:22.208Z,26.40
2018-08-11T11:15:51.145Z,26.20
2018-08-11T11:18:20.034Z,26.60
2018-08-11T11:20:49.229Z,27.40
2018-08-11T11:23:18.175Z,28.00
2018-08-11T11:25:47.101Z,28.10
2018-08-11T11:28:15.995Z,28.20
2018-08-11T11:30:44.874Z,28.40
2018-08-11T11:33:13.867Z,27.60
2018-08-11T11:35:42.996Z,27.40
2018-08-11T11:38:12.145Z,27.90
2018-08-11T11:40:41.049Z,28.40
2018-08-11T11:43:10.175Z,28.50
2018-08-11T11:45:39.083Z,28.60
2018-08-11T11:48:07.986Z,28.70
2018-08-11T11:50:36.991Z,28.90
2018-08-11T11:53:05.891Z,29.10
2018-08-11T11:55:34.814Z,29.40
2018-08-11T11:58:03.729Z,29.70
2018-08-11T12:00:32.693Z,30.20
2018-08-11T12:03:01.587Z,30.40
2018-08-11T12:05:30.514Z,30.50
2018-08-11T12:08:00.162Z,30.40
2018-08-11T12:10:29.235Z,30.40
2018-08-11T12:15:44.447Z,30.20
2018-08-11T12:18:16.788Z,30.20
2018-08-11T12:20:45.947Z,30.20
2018-08-11T12:23:16.241Z,29.60
2018-08-11T12:25:45.175Z,29.10
2018-08-11T12:28:14.235Z,28.40
2018-08-11T12:30:43.352Z,28.50
2018-08-11T12:33:12.234Z,28.60
2018-08-11T12:35:41.502Z,29.00
2018-08-11T12:38:11.820Z,29.20
2018-08-11T12:40:40.804Z,29.20
2018-08-11T12:43:10.218Z,29.10
2018-08-11T12:45:39.140Z,29.10
2018-08-11T12:48:08.179Z,29.20
2018-08-11T12:50:37.059Z,29.20
2018-08-11T12:53:06.202Z,28.70
2018-08-11T12:55:36.669Z,28.90
2018-08-11T12:58:05.775Z,28.70
2018-08-11T13:00:34.752Z,28.80
2018-08-11T13:03:03.691Z,28.90
2018-08-11T13:05:32.614Z,28.90
2018-08-11T13:08:01.587Z,28.50
2018-08-11T13:10:30.608Z,28.20
2018-08-11T13:12:59.514Z,28.50
2018-08-11T13:15:28.456Z,28.50
2018-08-11T13:17:57.627Z,28.60
2018-08-11T13:20:26.511Z,28.80
2018-08-11T13:22:55.505Z,29.10
2018-08-11T13:25:24.635Z,29.40
2018-08-11T13:27:53.761Z,29.60
2018-08-11T13:30:23.079Z,29.70
2018-08-11T13:32:52.004Z,29.80
2018-08-11T13:35:20.939Z,29.90
2018-08-11T13:37:49.881Z,30.00
2018-08-11T13:40:18.802Z,30.00
2018-08-11T13:42:49.085Z,29.90
2018-08-11T13:45:17.998Z,29.70
2018-08-11T13:47:46.880Z,29.80
2018-08-11T13:50:15.839Z,29.80
2018-08-11T13:52:44.750Z,29.50
2018-08-11T13:55:13.895Z,29.40
2018-08-11T13:57:43.086Z,28.80
2018-08-11T14:00:12.054Z,28.10
2018-08-11T14:02:40.920Z,27.20
2018-08-11T14:05:17.308Z,26.60
2018-08-11T14:07:46.325Z,26.00
2018-08-11T14:10:15.211Z,25.30
2018-08-11T14:12:44.334Z,24.50
2018-08-11T14:15:13.567Z,24.40
2018-08-11T14:17:42.733Z,24.40
2018-08-11T14:20:11.904Z,25.40
2018-08-11T14:22:40.817Z,26.30
2018-08-11T14:25:09.848Z,26.80
2018-08-11T14:27:40.815Z,26.70
2018-08-11T14:30:11.109Z,26.90
2018-08-11T14:32:40.481Z,27.20
2018-08-11T14:35:09.384Z,27.30
2018-08-11T14:37:38.359Z,27.40
2018-08-11T14:40:09.512Z,27.20
2018-08-11T14:42:38.503Z,27.00
2018-08-11T14:45:08.901Z,26.80
2018-08-11T14:47:37.837Z,26.80
2018-08-11T14:50:07.442Z,26.90
2018-08-11T14:52:36.785Z,26.70
2018-08-11T14:55:06.153Z,25.90
2018-08-11T14:57:35.218Z,26.00
2018-08-11T15:00:07.331Z,26.30
2018-08-11T15:02:36.503Z,26.50
2018-08-11T15:05:05.758Z,26.60
2018-08-11T15:07:35.051Z,26.30
2018-08-11T15:10:04.340Z,26.40
2018-08-11T15:12:33.347Z,25.60
2018-08-11T15:15:02.241Z,25.00
2018-08-11T15:17:32.206Z,24.50
2018-08-11T15:20:01.399Z,24.40
2018-08-11T15:22:30.362Z,24.30
2018-08-11T15:24:59.232Z,24.60
2018-08-11T15:27:28.196Z,24.80
2018-08-11T15:29:57.779Z,25.30
2018-08-11T15:32:26.750Z,25.70
2018-08-11T15:34:55.672Z,25.80
2018-08-11T15:37:24.681Z,25.50
2018-08-11T15:39:53.594Z,25.40
2018-08-11T15:42:22.498Z,25.50
2018-08-11T15:44:51.736Z,25.60
2018-08-11T15:47:21.910Z,25.60
2018-08-11T15:49:50.854Z,25.20
2018-08-11T15:52:20.171Z,24.60
2018-08-11T15:54:49.049Z,24.50
2018-08-11T15:57:18.075Z,25.00
2018-08-11T15:59:47.016Z,25.10
2018-08-11T16:02:16.056Z,25.00
2018-08-11T16:04:45.174Z,25.30
2018-08-11T16:07:14.091Z,25.50
2018-08-11T16:09:43.009Z,25.30
2018-08-11T16:12:11.902Z,24.60
2018-08-11T16:14:40.826Z,24.20
2018-08-11T16:17:09.959Z,24.50
2018-08-11T16:19:39.119Z,24.80
2018-08-11T16:22:08.466Z,24.90
2018-08-11T16:24:37.427Z,25.10
2018-08-11T16:27:07.796Z,25.20
2018-08-11T16:29:44.684Z,25.00
2018-08-11T16:32:15.557Z,25.20
2018-08-11T16:34:44.592Z,25.40
2018-08-11T16:37:14.151Z,25.50
2018-08-11T16:39:43.075Z,25.00
2018-08-11T16:42:11.967Z,24.50
2018-08-11T16:44:41.065Z,25.00
2018-08-11T16:47:10.080Z,25.20
2018-08-11T16:49:42.050Z,25.20
2018-08-11T16:52:11.274Z,25.40
2018-08-11T16:54:40.166Z,25.50
2018-08-11T16:57:09.058Z,25.50
2018-08-11T16:59:38.062Z,25.60
2018-08-11T17:02:06.958Z,25.50
2018-08-11T17:04:36.360Z,25.40
2018-08-11T17:07:05.543Z,25.60
2018-08-11T17:09:34.644Z,25.40
2018-08-11T17:12:03.546Z,25.60
2018-08-11T17:14:32.477Z,25.80
2018-08-11T17:17:01.668Z,25.80
2018-08-11T17:19:30.759Z,25.80
2018-08-11T17:22:00.222Z,25.80
2018-08-11T17:24:29.515Z,25.70
2018-08-11T17:26:58.392Z,25.70
2018-08-11T17:29:27.320Z,25.70
2018-08-11T17:31:56.289Z,25.70
2018-08-11T17:34:25.156Z,25.70
2018-08-11T17:36:54.380Z,25.70
2018-08-11T17:39:23.509Z,25.70
2018-08-11T17:41:52.376Z,25.60
2018-08-11T17:44:21.292Z,25.60
2018-08-11T17:46:50.193Z,25.70
2018-08-11T17:49:19.484Z,25.70
2018-08-11T17:51:48.448Z,25.70
2018-08-11T17:54:17.575Z,25.80
2018-08-11T17:56:46.574Z,25.70
2018-08-11T17:59:15.582Z,25.60
2018-08-11T18:01:44.472Z,25.60
2018-08-11T18:04:13.712Z,25.60
2018-08-11T18:06:42.718Z,25.70
2018-08-11T18:09:12.332Z,25.80
2018-08-11T18:11:42.203Z,25.80
2018-08-11T18:14:11.427Z,25.70
2018-08-11T18:16:40.593Z,25.60
2018-08-11T18:19:09.519Z,25.60
2018-08-11T18:21:38.422Z,25.70
2018-08-11T18:24:07.708Z,25.70
2018-08-11T18:26:36.603Z,25.70
2018-08-11T18:29:05.519Z,25.40
2018-08-11T18:31:34.415Z,25.20
2018-08-11T18:34:03.835Z,25.00
2018-08-11T18:36:33.074Z,24.80
2018-08-11T18:39:02.280Z,24.60
2018-08-11T18:41:31.406Z,24.20
2018-08-11T18:44:00.573Z,24.10
2018-08-11T18:46:29.719Z,24.10
2018-08-11T18:48:59.115Z,24.10
2018-08-11T18:51:28.036Z,24.10
2018-08-11T18:53:56.938Z,24.10
2018-08-11T18:56:25.846Z,24.10
2018-08-11T18:58:54.840Z,24.00
2018-08-11T19:01:24.170Z,24.10
2018-08-11T19:03:53.058Z,24.30
2018-08-11T19:06:22.275Z,24.50
2018-08-11T19:08:51.218Z,24.50
2018-08-11T19:11:20.130Z,24.30
2018-08-11T19:13:49.036Z,24.30
2018-08-11T19:16:17.990Z,24.30
2018-08-11T19:18:46.886Z,24.30
2018-08-11T19:21:15.808Z,24.10
2018-08-11T19:23:44.696Z,24.00
2018-08-11T19:26:14.072Z,24.00
2018-08-11T19:28:42.923Z,24.10
2018-08-11T19:31:11.806Z,24.20
2018-08-11T19:33:40.738Z,24.10
2018-08-11T19:36:09.614Z,23.90
2018-08-11T19:38:39.027Z,23.70
2018-08-11T19:41:07.991Z,23.70
2018-08-11T19:43:37.220Z,23.60
2018-08-11T19:46:06.385Z,23.50
2018-08-11T19:48:35.249Z,23.50
2018-08-11T19:51:04.476Z,23.40
2018-08-11T19:53:33.385Z,23.40
2018-08-11T19:56:02.825Z,23.50
2018-08-11T19:58:31.904Z,23.50
2018-08-11T20:01:00.838Z,23.60
2018-08-11T20:03:29.765Z,23.70
2018-08-11T20:05:59.114Z,23.60
2018-08-11T20:08:27.980Z,23.70
2018-08-11T20:10:57.630Z,23.60
2018-08-11T20:13:26.839Z,23.50
2018-08-11T20:15:55.774Z,23.50
2018-08-11T20:18:24.727Z,23.50
2018-08-11T20:20:53.645Z,23.50
2018-08-11T20:23:22.761Z,23.50
2018-08-11T20:25:51.623Z,23.50
2018-08-11T20:28:20.767Z,23.40
2018-08-11T20:30:49.679Z,23.40
2018-08-11T20:33:18.839Z,23.40
2018-08-11T20:35:47.720Z,23.40
2018-08-11T20:38:16.699Z,23.40
2018-08-11T20:40:45.860Z,23.40
2018-08-11T20:43:14.770Z,23.40
2018-08-11T20:45:43.637Z,23.30
2018-08-11T20:48:12.875Z,23.10
2018-08-11T20:50:41.795Z,23.10
2018-08-11T20:53:10.974Z,23.40
2018-08-11T20:55:40.157Z,23.90
2018-08-11T20:58:09.359Z,24.30
2018-08-11T21:00:38.284Z,24.40
2018-08-11T21:03:09.606Z,24.30
2018-08-11T21:05:38.810Z,24.10
2018-08-11T21:08:07.726Z,23.90
2018-08-11T21:10:36.619Z,23.80
2018-08-11T21:13:05.993Z,23.60
2018-08-11T21:15:34.993Z,23.50
2018-08-11T21:18:03.876Z,23.30
2018-08-11T21:20:32.798Z,23.30
2018-08-11T21:23:01.704Z,23.30
2018-08-11T21:25:30.895Z,23.30
2018-08-11T21:28:00.357Z,23.30
2018-08-11T21:30:29.659Z,23.30
2018-08-11T21:32:58.866Z,23.40
2018-08-11T21:35:27.776Z,23.40
2018-08-11T21:37:56.939Z,23.30
2018-08-11T21:40:26.047Z,23.30
2018-08-11T21:42:54.936Z,23.20
2018-08-11T21:45:23.825Z,23.20
2018-08-11T21:47:52.719Z,23.10
2018-08-11T21:50:21.907Z,23.00
2018-08-11T21:52:50.816Z,23.00
2018-08-11T21:55:19.718Z,23.10
2018-08-11T21:57:49.185Z,23.20
2018-08-11T22:00:25.458Z,23.30
2018-08-11T22:02:55.789Z,23.20
2018-08-11T22:05:25.726Z,23.20
2018-08-11T22:07:56.341Z,23.20
2018-08-11T22:10:25.564Z,23.20
2018-08-11T22:12:54.824Z,23.20
2018-08-11T22:15:23.728Z,23.10
2018-08-11T22:17:52.655Z,23.00
2018-08-11T22:20:21.902Z,23.00
2018-08-11T22:22:50.909Z,22.90
2018-08-11T22:25:19.772Z,22.90
2018-08-11T22:27:48.683Z,23.00
2018-08-11T22:30:17.575Z,22.90
2018-08-11T22:32:46.627Z,22.80
2018-08-11T22:35:15.777Z,22.80
2018-08-11T22:37:44.671Z,22.90
2018-08-11T22:40:13.575Z,22.90
2018-08-11T22:42:42.443Z,22.90
2018-08-11T22:45:12.126Z,22.90
2018-08-11T22:47:41.076Z,22.90
2018-08-11T22:50:12.050Z,23.00
2018-08-11T22:52:40.973Z,23.00
2018-08-11T22:55:10.174Z,22.90
2018-08-11T22:57:39.061Z,22.80
2018-08-11T23:00:11.799Z,22.70
2018-08-11T23:02:41.231Z,22.70
2018-08-11T23:05:10.266Z,22.70
2018-08-11T23:07:40.048Z,22.70
2018-08-11T23:10:10.851Z,22.70
2018-08-11T23:12:40.735Z,22.70
2018-08-11T23:15:12.311Z,22.70
2018-08-11T23:17:43.365Z,22.80
2018-08-11T23:20:12.357Z,22.80
2018-08-11T23:22:41.532Z,22.80
2018-08-11T23:25:10.863Z,22.80
2018-08-11T23:27:39.793Z,22.80
2018-08-11T23:30:11.704Z,22.70
2018-08-11T23:32:41.939Z,22.70
2018-08-11T23:35:11.205Z,22.60
2018-08-11T23:37:40.950Z,22.60
2018-08-11T23:40:10.547Z,22.60
2018-08-11T23:42:39.424Z,22.70
2018-08-11T23:45:11.597Z,22.60
2018-08-11T23:47:41.054Z,22.60
2018-08-11T23:50:10.737Z,22.60
2018-08-11T23:52:40.419Z,22.50
2018-08-11T23:55:10.658Z,22.50
2018-08-11T23:57:39.543Z,22.40
